createdAt,value
2022-08-26T00:00:07.971Z,4.40
2022-08-26T00:03:00.987Z,5.40
2022-08-26T00:05:29.102Z,5.00
2022-08-26T00:07:57.468Z,4.50
2022-08-26T00:10:25.888Z,5.20
2022-08-26T00:12:53.871Z,5.10
2022-08-26T00:15:23.491Z,5.00
2022-08-26T00:17:53.804Z,5.60
2022-08-26T00:20:26.775Z,4.70
2022-08-26T00:22:55.101Z,5.30
2022-08-26T00:25:24.084Z,5.00
2022-08-26T00:27:52.288Z,5.20
2022-08-26T00:30:24.187Z,4.70
2022-08-26T00:32:56.148Z,4.80
2022-08-26T00:35:25.904Z,4.50
2022-08-26T00:37:57.271Z,5.10
2022-08-26T00:40:31.320Z,4.30
2022-08-26T00:43:00.794Z,4.30
2022-08-26T00:45:39.872Z,4.20
2022-08-26T00:48:09.881Z,4.70
2022-08-26T00:50:42.506Z,5.80
2022-08-26T00:53:24.066Z,4.60
2022-08-26T00:56:06.187Z,5.10
2022-08-26T00:58:38.826Z,4.90
2022-08-26T01:01:11.569Z,5.30
2022-08-26T01:03:42.002Z,4.60
2022-08-26T01:06:13.033Z,4.60
2022-08-26T01:08:41.469Z,4.80
2022-08-26T01:11:11.799Z,4.30
2022-08-26T01:13:40.423Z,4.40
2022-08-26T01:16:12.963Z,4.60
2022-08-26T01:18:43.385Z,4.90
2022-08-26T01:21:31.639Z,4.70
2022-08-26T01:23:59.916Z,5.70
2022-08-26T01:26:33.972Z,4.90
2022-08-26T01:29:05.524Z,4.70
2022-08-26T01:31:39.196Z,4.50
2022-08-26T01:34:11.213Z,4.90
2022-08-26T01:36:39.887Z,4.70
2022-08-26T01:39:09.014Z,4.80
2022-08-26T01:41:40.676Z,4.20
2022-08-26T01:44:19.580Z,5.40
2022-08-26T01:46:50.761Z,4.30
2022-08-26T01:49:21.065Z,4.80
2022-08-26T01:51:52.042Z,4.40
2022-08-26T01:54:21.084Z,4.50
2022-08-26T01:56:53.044Z,4.90
2022-08-26T01:59:23.891Z,5.40
2022-08-26T02:01:53.266Z,5.10
2022-08-26T02:04:31.028Z,4.60
2022-08-26T02:07:03.207Z,5.10
2022-08-26T02:09:31.826Z,4.60
2022-08-26T02:12:07.286Z,5.30
2022-08-26T02:14:44.022Z,5.00
2022-08-26T02:17:13.146Z,5.10
2022-08-26T02:19:46.567Z,4.50
2022-08-26T02:22:20.041Z,4.20
2022-08-26T02:24:56.037Z,4.40
2022-08-26T02:27:33.728Z,4.30
2022-08-26T02:30:15.141Z,5.20
2022-08-26T02:32:45.597Z,4.30
2022-08-26T02:35:20.102Z,4.80
2022-08-26T02:37:51.026Z,5.00
2022-08-26T02:40:25.592Z,4.40
2022-08-26T02:42:56.094Z,5.10
2022-08-26T02:45:28.127Z,4.20
2022-08-26T02:47:58.260Z,4.90
2022-08-26T02:50:27.839Z,5.50
2022-08-26T02:52:56.351Z,4.70
2022-08-26T02:55:24.772Z,4.60
2022-08-26T02:57:52.936Z,4.30
2022-08-26T03:00:21.154Z,4.50
2022-08-26T03:02:49.290Z,5.70
2022-08-26T03:05:19.827Z,4.20
2022-08-26T03:07:49.238Z,4.10
2022-08-26T03:10:17.634Z,4.10
2022-08-26T03:12:47.489Z,4.20
2022-08-26T03:15:18.707Z,5.00
2022-08-26T03:17:48.423Z,4.70
2022-08-26T03:20:18.651Z,5.00
2022-08-26T03:22:47.191Z,5.10
2022-08-26T03:25:17.448Z,5.10
2022-08-26T03:27:45.535Z,4.60
2022-08-26T03:30:33.270Z,5.00
2022-08-26T03:33:01.643Z,4.90
2022-08-26T03:35:32.346Z,5.40
2022-08-26T03:38:01.859Z,5.00
2022-08-26T03:40:29.969Z,4.90
2022-08-26T03:42:57.951Z,4.40
2022-08-26T03:45:26.188Z,4.00
2022-08-26T03:47:55.092Z,4.10
2022-08-26T03:50:26.248Z,4.50
2022-08-26T03:52:56.314Z,4.40
2022-08-26T03:55:27.517Z,4.50
2022-08-26T03:57:55.752Z,4.40
2022-08-26T04:00:24.388Z,4.00
2022-08-26T04:02:53.428Z,5.30
2022-08-26T04:05:23.336Z,5.30
2022-08-26T04:07:52.419Z,4.60
2022-08-26T04:10:28.735Z,5.20
2022-08-26T04:12:59.727Z,4.80
2022-08-26T04:15:28.293Z,5.50
2022-08-26T04:17:57.495Z,5.30
2022-08-26T04:20:26.913Z,5.00
2022-08-26T04:22:55.111Z,4.40
2022-08-26T04:25:24.201Z,5.40
2022-08-26T04:27:52.561Z,6.10
2022-08-26T04:30:21.374Z,4.70
2022-08-26T04:32:49.970Z,5.10
2022-08-26T04:35:17.964Z,4.40
2022-08-26T04:37:46.142Z,4.20
2022-08-26T04:40:14.214Z,4.80
2022-08-26T04:42:42.205Z,5.30
2022-08-26T04:45:11.809Z,4.40
2022-08-26T04:47:40.646Z,4.70
2022-08-26T04:50:09.256Z,4.70
2022-08-26T04:52:39.226Z,4.70
2022-08-26T04:55:08.521Z,5.00
2022-08-26T04:57:36.960Z,4.80
2022-08-26T05:00:08.105Z,4.50
2022-08-26T05:02:36.538Z,4.90
2022-08-26T05:05:05.902Z,4.60
2022-08-26T05:07:35.480Z,4.30
2022-08-26T05:10:08.709Z,5.10
2022-08-26T05:12:37.111Z,4.40
2022-08-26T05:15:07.064Z,5.00
2022-08-26T05:17:35.191Z,4.70
2022-08-26T05:20:05.240Z,4.20
2022-08-26T05:22:37.688Z,5.10
2022-08-26T05:25:06.285Z,4.20
2022-08-26T05:27:34.390Z,4.60
2022-08-26T05:30:02.751Z,4.40
2022-08-26T05:32:32.254Z,4.70
2022-08-26T05:35:00.417Z,4.60
2022-08-26T05:37:28.806Z,3.60
2022-08-26T05:39:57.671Z,3.90
2022-08-26T05:42:26.128Z,4.20
2022-08-26T05:44:56.031Z,4.80
2022-08-26T05:47:26.518Z,4.80
2022-08-26T05:49:55.883Z,3.90
2022-08-26T05:52:24.649Z,4.00
2022-08-26T05:54:54.482Z,4.00
2022-08-26T05:57:23.112Z,4.10
2022-08-26T05:59:51.935Z,3.70
2022-08-26T06:02:20.963Z,4.10
2022-08-26T06:04:49.118Z,4.70
2022-08-26T06:07:17.316Z,4.10
2022-08-26T06:09:46.668Z,4.30
2022-08-26T06:12:15.917Z,4.40
2022-08-26T06:14:46.716Z,4.50
2022-08-26T06:17:17.157Z,4.80
2022-08-26T06:19:45.983Z,4.00
2022-08-26T06:22:34.360Z,4.70
2022-08-26T06:25:20.785Z,4.20
2022-08-26T06:27:49.051Z,4.40
2022-08-26T06:30:17.579Z,3.60
2022-08-26T06:32:49.432Z,3.60
2022-08-26T06:35:17.569Z,4.20
2022-08-26T06:37:46.686Z,4.40
2022-08-26T06:40:14.842Z,4.10
2022-08-26T06:42:43.959Z,3.60
2022-08-26T06:45:12.186Z,3.90
2022-08-26T06:47:40.410Z,3.70
2022-08-26T06:50:08.878Z,3.70
2022-08-26T06:52:37.062Z,3.70
2022-08-26T06:55:05.821Z,3.40
2022-08-26T06:57:34.813Z,3.20
2022-08-26T07:00:13.540Z,3.60
2022-08-26T07:02:46.872Z,3.20
2022-08-26T07:05:15.590Z,3.70
2022-08-26T07:07:44.298Z,3.70
2022-08-26T07:10:12.596Z,3.30
2022-08-26T07:12:40.831Z,3.50
2022-08-26T07:15:10.438Z,3.60
2022-08-26T07:17:38.729Z,3.60
2022-08-26T07:20:10.182Z,3.10
2022-08-26T07:22:39.410Z,3.80
2022-08-26T07:25:09.343Z,3.10
2022-08-26T07:27:38.870Z,3.70
2022-08-26T07:30:07.946Z,3.50
2022-08-26T07:32:37.843Z,3.70
2022-08-26T07:35:06.756Z,3.90
2022-08-26T07:37:39.350Z,4.00
2022-08-26T07:40:09.247Z,3.80
2022-08-26T07:42:37.632Z,4.80
2022-08-26T07:45:06.767Z,4.00
2022-08-26T07:47:35.485Z,4.40
2022-08-26T07:50:04.064Z,4.30
2022-08-26T07:52:34.298Z,4.30
2022-08-26T07:55:02.746Z,4.50
2022-08-26T07:57:30.909Z,4.40
2022-08-26T07:59:59.827Z,4.30
2022-08-26T08:02:29.634Z,4.30
2022-08-26T08:04:58.523Z,6.50
2022-08-26T08:07:44.444Z,5.30
2022-08-26T08:10:17.451Z,5.20
2022-08-26T08:12:47.174Z,4.30
2022-08-26T08:15:17.563Z,4.40
2022-08-26T08:17:46.025Z,4.30
2022-08-26T08:20:15.104Z,3.90
2022-08-26T08:22:43.698Z,3.90
2022-08-26T08:25:12.815Z,4.40
2022-08-26T08:27:43.427Z,4.70
2022-08-26T08:30:14.066Z,4.40
2022-08-26T08:32:45.968Z,4.40
2022-08-26T08:35:17.768Z,3.90
2022-08-26T08:37:46.301Z,4.70
2022-08-26T08:40:18.510Z,3.30
2022-08-26T08:43:04.538Z,3.60
2022-08-26T08:45:50.875Z,3.70
2022-08-26T08:48:19.052Z,3.40
2022-08-26T08:50:54.691Z,3.50
2022-08-26T08:53:43.161Z,3.30
2022-08-26T08:56:46.463Z,3.40
2022-08-26T08:59:28.151Z,4.20
2022-08-26T09:02:18.452Z,3.60
2022-08-26T09:05:03.249Z,4.30
2022-08-26T09:07:37.524Z,3.80
2022-08-26T09:10:32.531Z,3.60
2022-08-26T09:13:04.014Z,3.80
2022-08-26T09:15:47.994Z,4.30
2022-08-26T09:18:38.871Z,3.30
2022-08-26T09:21:10.532Z,3.60
2022-08-26T09:23:41.909Z,3.60
2022-08-26T09:26:30.652Z,3.40
2022-08-26T09:29:05.894Z,3.50
2022-08-26T09:31:42.696Z,4.50
2022-08-26T09:34:10.829Z,3.70
2022-08-26T09:36:44.245Z,3.90
2022-08-26T09:39:25.700Z,3.50
2022-08-26T09:42:25.753Z,3.70
2022-08-26T09:44:59.595Z,4.30
2022-08-26T09:47:34.170Z,3.90
2022-08-26T09:50:31.312Z,3.40
2022-08-26T09:53:21.011Z,3.60
2022-08-26T09:56:11.475Z,3.00
2022-08-26T09:58:43.131Z,3.10
2022-08-26T10:01:42.257Z,3.40
2022-08-26T10:04:21.421Z,3.00
2022-08-26T10:07:01.903Z,3.20
2022-08-26T10:09:35.789Z,3.20
2022-08-26T10:12:12.216Z,3.10
2022-08-26T10:14:48.309Z,3.40
2022-08-26T10:17:31.791Z,2.90
2022-08-26T10:20:22.443Z,3.30
2022-08-26T10:23:10.192Z,3.10
2022-08-26T10:25:49.297Z,3.20
2022-08-26T10:28:21.726Z,3.10
2022-08-26T10:30:59.973Z,3.80
2022-08-26T10:33:28.668Z,3.80
2022-08-26T10:36:03.983Z,3.40
2022-08-26T10:38:38.893Z,4.00
2022-08-26T10:41:21.045Z,3.20
2022-08-26T10:43:56.584Z,3.60
2022-08-26T10:46:33.570Z,2.90
2022-08-26T10:49:06.636Z,4.80
2022-08-26T10:51:45.620Z,4.00
2022-08-26T10:54:27.497Z,3.30
2022-08-26T10:57:21.711Z,3.60
2022-08-26T11:00:51.862Z,3.00
2022-08-26T11:03:42.076Z,3.70
2022-08-26T11:06:19.058Z,3.30
2022-08-26T11:08:47.765Z,3.90
2022-08-26T11:11:40.563Z,3.20
2022-08-26T11:14:29.278Z,3.40
2022-08-26T11:17:00.243Z,2.90
2022-08-26T11:19:59.535Z,3.00
2022-08-26T11:22:35.013Z,3.10
2022-08-26T11:25:11.602Z,2.80
2022-08-26T11:27:40.394Z,3.40
2022-08-26T11:30:08.707Z,3.60
2022-08-26T11:32:39.314Z,3.40
2022-08-26T11:35:12.656Z,2.90
2022-08-26T11:37:41.297Z,3.40
2022-08-26T11:40:14.917Z,3.10
2022-08-26T11:42:55.727Z,3.70
2022-08-26T11:45:38.643Z,3.50
2022-08-26T11:48:32.772Z,3.60
2022-08-26T11:51:24.773Z,4.60
2022-08-26T11:54:09.429Z,2.70
